Airfield :
LOGIN :

Register | Disclaimer

   EN    FR    IT 

 










Legend :    VFR   Marginal VFR   IFR   Intensive IFR   Very Intensive IFR
Visi :
Ceiling :
>= 8 km
>= 3000ft
5 to 8 km
1000 to 3000 ft
1500m to 5 km
500 to 1000 ft
800 to 1500m
200 to 500 ft
< 800m
< 200 ft
Symbols :   Thunderstorms  Fog  Heavy snow  Heavy precipitations  Wind > 20 kt
SIGMETs :     Misc.  Thunderstorms  Icing  Turbulence  Mountain Waves  Volcanic Ashes






- Airport Elevation : 302 ft


LFPM - Melun Villaroche

CURRENT METAR :
  • 131100Z AUTO 27019G31KT 9999 BKN039 08/03 Q0986

EXPIRED METARs :
  • 131030Z AUTO 26018KT 9999 BKN037/// BKN056/// OVC074/// ///TCU 08/03 Q0986
  • 131000Z AUTO 26020KT 9999 -RA FEW030/// SCT035/// BKN048/// ///TCU 07/03 Q0985
  • 130930Z AUTO 27019KT 9999 BKN031 BKN044 BKN056 07/03 Q0984
  • 130900Z AUTO 24012KT 9999 -RA BKN031/// BKN037/// BKN045/// ///TCU 06/04 Q0984
  • 130830Z AUTO 26017KT 9999 FEW016/// BKN043/// BKN054/// ///CB 05/03 Q0983

Expired Forecast.
ATIS : +33 1 64 14 28 44



MET'MAP, your aeronautical weather chart ! - Copyright ORBIFLY December 2007 - Disclaimer

ORBIFLY MET'MAP TEAM :

Programming & Development : Alexandra Zaïnal
Concept & original design : Baudouin d'Aumeries
Assistance for programming : Marc-Olivier Méhu
Technical & hardware support : Manuel Goepfert

Contact : metmap@orbifly.com




SOURCES & CREDITS :

   NOAA